sensor_id;sensor_type;location;lat;lon;timestamp;pressure;altitude;pressure_sealevel;temperature;humidity
21640;BME280;10981;45.462;10.974;2024-03-08T00:00:16;100675.44;;;8.83;100.00
21640;BME280;10981;45.462;10.974;2024-03-08T00:02:48;100677.34;;;8.81;100.00
21640;BME280;10981;45.462;10.974;2024-03-08T00:05:19;100678.28;;;8.80;100.00
21640;BME280;10981;45.462;10.974;2024-03-08T00:07:47;100681.22;;;8.75;100.00
21640;BME280;10981;45.462;10.974;2024-03-08T00:10:16;100669.84;;;8.76;100.00
21640;BME280;10981;45.462;10.974;2024-03-08T00:12:47;100671.00;;;8.72;100.00
21640;BME280;10981;45.462;10.974;2024-03-08T00:15:17;100677.16;;;8.71;100.00
21640;BME280;10981;45.462;10.974;2024-03-08T00:17:47;100677.03;;;8.73;100.00
21640;BME280;10981;45.462;10.974;2024-03-08T00:20:17;100672.69;;;8.73;100.00
21640;BME280;10981;45.462;10.974;2024-03-08T00:22:48;100667.34;;;8.75;100.00
21640;BME280;10981;45.462;10.974;2024-03-08T00:25:16;100672.44;;;8.76;100.00
21640;BME280;10981;45.462;10.974;2024-03-08T00:27:44;100664.75;;;8.75;100.00
21640;BME280;10981;45.462;10.974;2024-03-08T00:30:13;100664.63;;;8.76;100.00
21640;BME280;10981;45.462;10.974;2024-03-08T00:32:42;100663.88;;;8.74;100.00
21640;BME280;10981;45.462;10.974;2024-03-08T00:35:10;100660.47;;;8.74;100.00
21640;BME280;10981;45.462;10.974;2024-03-08T00:37:41;100664.00;;;8.73;100.00
21640;BME280;10981;45.462;10.974;2024-03-08T00:40:15;100661.41;;;8.73;100.00
21640;BME280;10981;45.462;10.974;2024-03-08T00:42:43;100662.25;;;8.73;100.00
21640;BME280;10981;45.462;10.974;2024-03-08T00:45:12;100664.94;;;8.72;100.00
21640;BME280;10981;45.462;10.974;2024-03-08T00:47:40;100657.97;;;8.72;100.00
21640;BME280;10981;45.462;10.974;2024-03-08T00:50:10;100654.31;;;8.75;100.00
21640;BME280;10981;45.462;10.974;2024-03-08T00:52:39;100660.22;;;8.77;100.00
21640;BME280;10981;45.462;10.974;2024-03-08T00:55:07;100658.66;;;8.74;100.00
21640;BME280;10981;45.462;10.974;2024-03-08T00:57:38;100662.00;;;8.76;100.00
21640;BME280;10981;45.462;10.974;2024-03-08T01:00:07;100664.75;;;8.75;100.00
21640;BME280;10981;45.462;10.974;2024-03-08T01:02:40;100662.13;;;8.75;100.00
21640;BME280;10981;45.462;10.974;2024-03-08T01:05:09;100654.91;;;8.78;100.00
21640;BME280;10981;45.462;10.974;2024-03-08T01:07:37;100652.06;;;8.81;100.00
21640;BME280;10981;45.462;10.974;2024-03-08T01:10:06;100649.56;;;8.80;100.00
21640;BME280;10981;45.462;10.974;2024-03-08T01:12:40;100642.56;;;8.80;100.00
21640;BME280;10981;45.462;10.974;2024-03-08T01:15:09;100649.25;;;8.85;100.00
21640;BME280;10981;45.462;10.974;2024-03-08T01:17:37;100650.06;;;8.85;100.00
21640;BME280;10981;45.462;10.974;2024-03-08T01:20:07;100643.19;;;8.84;100.00
21640;BME280;10981;45.462;10.974;2024-03-08T01:22:35;100641.19;;;8.88;100.00
21640;BME280;10981;45.462;10.974;2024-03-08T01:25:03;100636.09;;;8.86;100.00
21640;BME280;10981;45.462;10.974;2024-03-08T01:27:33;100632.75;;;8.84;100.00
21640;BME280;10981;45.462;10.974;2024-03-08T01:30:03;100631.06;;;8.83;100.00
21640;BME280;10981;45.462;10.974;2024-03-08T01:32:32;100618.88;;;8.83;100.00
21640;BME280;10981;45.462;10.974;2024-03-08T01:35:00;100619.59;;;8.86;100.00
21640;BME280;10981;45.462;10.974;2024-03-08T01:37:29;100617.69;;;8.88;100.00
21640;BME280;10981;45.462;10.974;2024-03-08T01:39:58;100616.88;;;8.87;100.00
21640;BME280;10981;45.462;10.974;2024-03-08T01:42:26;100614.47;;;8.84;100.00
21640;BME280;10981;45.462;10.974;2024-03-08T01:44:54;100620.75;;;8.81;100.00
21640;BME280;10981;45.462;10.974;2024-03-08T01:47:22;100620.88;;;8.80;100.00
21640;BME280;10981;45.462;10.974;2024-03-08T01:49:54;100619.22;;;8.79;100.00
21640;BME280;10981;45.462;10.974;2024-03-08T01:52:22;100625.97;;;8.81;100.00
21640;BME280;10981;45.462;10.974;2024-03-08T01:54:51;100619.81;;;8.82;100.00
21640;BME280;10981;45.462;10.974;2024-03-08T01:57:20;100623.84;;;8.87;100.00
21640;BME280;10981;45.462;10.974;2024-03-08T01:59:51;100621.13;;;8.88;100.00
21640;BME280;10981;45.462;10.974;2024-03-08T02:02:22;100610.00;;;8.86;100.00
21640;BME280;10981;45.462;10.974;2024-03-08T02:04:51;100611.75;;;8.86;100.00
21640;BME280;10981;45.462;10.974;2024-03-08T02:07:21;100616.88;;;8.87;100.00
21640;BME280;10981;45.462;10.974;2024-03-08T02:09:51;100610.00;;;8.86;100.00
21640;BME280;10981;45.462;10.974;2024-03-08T02:12:20;100602.66;;;8.91;100.00
21640;BME280;10981;45.462;10.974;2024-03-08T02:14:49;100606.19;;;8.90;100.00
21640;BME280;10981;45.462;10.974;2024-03-08T02:17:17;100605.03;;;8.94;100.00
21640;BME280;10981;45.462;10.974;2024-03-08T02:19:46;100609.53;;;8.92;100.00
21640;BME280;10981;45.462;10.974;2024-03-08T02:22:14;100606.19;;;8.90;100.00
21640;BME280;10981;45.462;10.974;2024-03-08T02:24:43;100603.59;;;8.90;100.00
21640;BME280;10981;45.462;10.974;2024-03-08T02:27:11;100607.03;;;8.91;100.00
21640;BME280;10981;45.462;10.974;2024-03-08T02:29:41;100613.31;;;8.88;100.00
21640;BME280;10981;45.462;10.974;2024-03-08T02:32:10;100609.06;;;8.87;100.00
21640;BME280;10981;45.462;10.974;2024-03-08T02:34:38;100610.69;;;8.88;100.00
21640;BME280;10981;45.462;10.974;2024-03-08T02:37:07;100611.75;;;8.86;100.00
21640;BME280;10981;45.462;10.974;2024-03-08T02:39:36;100611.06;;;8.83;100.00
21640;BME280;10981;45.462;10.974;2024-03-08T02:42:05;100606.66;;;8.84;100.00
21640;BME280;10981;45.462;10.974;2024-03-08T02:44:33;100607.50;;;8.85;100.00
21640;BME280;10981;45.462;10.974;2024-03-08T02:47:02;100612.72;;;8.85;100.00
21640;BME280;10981;45.462;10.974;2024-03-08T02:49:30;100610.94;;;8.85;100.00
21640;BME280;10981;45.462;10.974;2024-03-08T02:51:58;100610.13;;;8.85;100.00
21640;BME280;10981;45.462;10.974;2024-03-08T02:54:26;100608.22;;;8.87;100.00
21640;BME280;10981;45.462;10.974;2024-03-08T02:56:56;100611.88;;;8.84;100.00
21640;BME280;10981;45.462;10.974;2024-03-08T02:59:24;100599.91;;;8.81;100.00
21640;BME280;10981;45.462;10.974;2024-03-08T03:01:52;100593.94;;;8.79;100.00
21640;BME280;10981;45.462;10.974;2024-03-08T03:04:21;100588.72;;;8.79;100.00
21640;BME280;10981;45.462;10.974;2024-03-08T03:06:49;100588.84;;;8.78;100.00
21640;BME280;10981;45.462;10.974;2024-03-08T03:09:20;100589.22;;;8.73;100.00
21640;BME280;10981;45.462;10.974;2024-03-08T03:11:52;100581.47;;;8.72;100.00
21640;BME280;10981;45.462;10.974;2024-03-08T03:14:21;100583.50;;;8.68;100.00
21640;BME280;10981;45.462;10.974;2024-03-08T03:16:50;100588.47;;;8.71;100.00
21640;BME280;10981;45.462;10.974;2024-03-08T03:19:18;100600.09;;;8.67;100.00
21640;BME280;10981;45.462;10.974;2024-03-08T03:21:46;100598.19;;;8.69;100.00
21640;BME280;10981;45.462;10.974;2024-03-08T03:24:15;100598.31;;;8.67;100.00
21640;BME280;10981;45.462;10.974;2024-03-08T03:26:44;100601.75;;;8.68;100.00
21640;BME280;10981;45.462;10.974;2024-03-08T03:29:14;100595.25;;;8.74;100.00
21640;BME280;10981;45.462;10.974;2024-03-08T03:31:43;100593.09;;;8.67;100.00
21640;BME280;10981;45.462;10.974;2024-03-08T03:34:14;100595.56;;;8.69;100.00
21640;BME280;10981;45.462;10.974;2024-03-08T03:36:43;100588.81;;;8.66;100.00
21640;BME280;10981;45.462;10.974;2024-03-08T03:39:14;100596.75;;;8.65;100.00
21640;BME280;10981;45.462;10.974;2024-03-08T03:41:44;100591.06;;;8.60;100.00
21640;BME280;10981;45.462;10.974;2024-03-08T03:44:14;100593.78;;;8.58;100.00
21640;BME280;10981;45.462;10.974;2024-03-08T03:46:43;100592.22;;;8.56;100.00
21640;BME280;10981;45.462;10.974;2024-03-08T03:49:14;100582.84;;;8.53;100.00
21640;BME280;10981;45.462;10.974;2024-03-08T03:51:45;100585.22;;;8.56;100.00
21640;BME280;10981;45.462;10.974;2024-03-08T03:54:14;100585.47;;;8.53;100.00
21640;BME280;10981;45.462;10.974;2024-03-08T03:56:43;100582.25;;;8.49;100.00
21640;BME280;10981;45.462;10.974;2024-03-08T03:59:14;100582.25;;;8.49;100.00
21640;BME280;10981;45.462;10.974;2024-03-08T04:01:45;100575.25;;;8.50;100.00
21640;BME280;10981;45.462;10.974;2024-03-08T04:04:13;100579.03;;;8.46;100.00
21640;BME280;10981;45.462;10.974;2024-03-08T04:06:41;100574.66;;;8.46;100.00
21640;BME280;10981;45.462;10.974;2024-03-08T04:09:10;100581.50;;;8.47;100.00
21640;BME280;10981;45.462;10.974;2024-03-08T04:11:39;100574.03;;;8.43;100.00
21640;BME280;10981;45.462;10.974;2024-03-08T04:14:08;100574.13;;;8.41;100.00
21640;BME280;10981;45.462;10.974;2024-03-08T04:16:37;100573.41;;;8.39;100.00
21640;BME280;10981;45.462;10.974;2024-03-08T04:19:06;100576.00;;;8.39;100.00
21640;BME280;10981;45.462;10.974;2024-03-08T04:21:34;100573.28;;;8.41;100.00
21640;BME280;10981;45.462;10.974;2024-03-08T04:24:02;100566.31;;;8.41;100.00
21640;BME280;10981;45.462;10.974;2024-03-08T04:26:31;100573.53;;;8.38;100.00
21640;BME280;10981;45.462;10.974;2024-03-08T04:28:59;100565.78;;;8.36;100.00
21640;BME280;10981;45.462;10.974;2024-03-08T04:31:27;100561.44;;;8.37;100.00
21640;BME280;10981;45.462;10.974;2024-03-08T04:33:55;100568.41;;;8.36;100.00
21640;BME280;10981;45.462;10.974;2024-03-08T04:36:24;100566.97;;;8.32;100.00
21640;BME280;10981;45.462;10.974;2024-03-08T04:38:53;100571.38;;;8.31;100.00
21640;BME280;10981;45.462;10.974;2024-03-08T04:41:21;100567.91;;;8.31;100.00
21640;BME280;10981;45.462;10.974;2024-03-08T04:43:51;100572.91;;;8.34;100.00
21640;BME280;10981;45.462;10.974;2024-03-08T04:46:20;100567.47;;;8.37;100.00
21640;BME280;10981;45.462;10.974;2024-03-08T04:48:48;100568.31;;;8.38;100.00
21640;BME280;10981;45.462;10.974;2024-03-08T04:51:16;100568.19;;;8.39;100.00
21640;BME280;10981;45.462;10.974;2024-03-08T04:53:45;100576.00;;;8.39;100.00
21640;BME280;10981;45.462;10.974;2024-03-08T04:56:13;100574.22;;;8.40;100.00
21640;BME280;10981;45.462;10.974;2024-03-08T04:58:41;100583.84;;;8.39;100.00
21640;BME280;10981;45.462;10.974;2024-03-08T05:01:10;100583.72;;;8.41;100.00
21640;BME280;10981;45.462;10.974;2024-03-08T05:03:39;100572.56;;;8.39;100.00
21640;BME280;10981;45.462;10.974;2024-03-08T05:06:07;100579.44;;;8.40;100.00
21640;BME280;10981;45.462;10.974;2024-03-08T05:08:36;100573.63;;;8.36;100.00
21640;BME280;10981;45.462;10.974;2024-03-08T05:11:04;100573.03;;;8.32;100.00
21640;BME280;10981;45.462;10.974;2024-03-08T05:13:38;100576.56;;;8.31;100.00
21640;BME280;10981;45.462;10.974;2024-03-08T05:16:06;100574.09;;;8.30;100.00
21640;BME280;10981;45.462;10.974;2024-03-08T05:18:35;100575.84;;;8.29;100.00
21640;BME280;10981;45.462;10.974;2024-03-08T05:21:04;100581.19;;;8.28;100.00
21640;BME280;10981;45.462;10.974;2024-03-08T05:23:32;100583.66;;;8.29;100.00
21640;BME280;10981;45.462;10.974;2024-03-08T05:26:02;100579.38;;;8.28;100.00
21640;BME280;10981;45.462;10.974;2024-03-08T05:28:32;100579.63;;;8.25;100.00
21640;BME280;10981;45.462;10.974;2024-03-08T05:31:01;100584.84;;;8.25;100.00
21640;BME280;10981;45.462;10.974;2024-03-08T05:33:29;100596.09;;;8.26;100.00
21640;BME280;10981;45.462;10.974;2024-03-08T05:35:57;100587.22;;;8.28;100.00
21640;BME280;10981;45.462;10.974;2024-03-08T05:38:27;100582.00;;;8.28;100.00
21640;BME280;10981;45.462;10.974;2024-03-08T05:40:56;100594.22;;;8.28;100.00
21640;BME280;10981;45.462;10.974;2024-03-08T05:43:24;100592.22;;;8.31;100.00
21640;BME280;10981;45.462;10.974;2024-03-08T05:45:52;100587.81;;;8.32;100.00
21640;BME280;10981;45.462;10.974;2024-03-08T05:48:21;100591.97;;;8.34;100.00
21640;BME280;10981;45.462;10.974;2024-03-08T05:50:50;100595.53;;;8.33;100.00
21640;BME280;10981;45.462;10.974;2024-03-08T05:53:18;100598.97;;;8.34;100.00
21640;BME280;10981;45.462;10.974;2024-03-08T05:55:47;100594.59;;;8.34;100.00
21640;BME280;10981;45.462;10.974;2024-03-08T05:58:15;100600.66;;;8.35;100.00
21640;BME280;10981;45.462;10.974;2024-03-08T06:00:44;100606.38;;;8.40;100.00
21640;BME280;10981;45.462;10.974;2024-03-08T06:03:17;100603.75;;;8.40;100.00
21640;BME280;10981;45.462;10.974;2024-03-08T06:05:49;100608.63;;;8.45;100.00
21640;BME280;10981;45.462;10.974;2024-03-08T06:08:17;100603.34;;;8.46;100.00
21640;BME280;10981;45.462;10.974;2024-03-08T06:10:47;100600.50;;;8.49;100.00
21640;BME280;10981;45.462;10.974;2024-03-08T06:13:20;100611.75;;;8.50;100.00
21640;BME280;10981;45.462;10.974;2024-03-08T06:15:55;100607.25;;;8.52;100.00
21640;BME280;10981;45.462;10.974;2024-03-08T06:18:26;100618.50;;;8.53;100.00
21640;BME280;10981;45.462;10.974;2024-03-08T06:20:54;100617.69;;;8.52;100.00
21640;BME280;10981;45.462;10.974;2024-03-08T06:23:24;100617.56;;;8.54;100.00
21640;BME280;10981;45.462;10.974;2024-03-08T06:25:52;100615.81;;;8.54;100.00
21640;BME280;10981;45.462;10.974;2024-03-08T06:28:23;100621.03;;;8.54;100.00
21640;BME280;10981;45.462;10.974;2024-03-08T06:30:51;100622.78;;;8.54;100.00
21640;BME280;10981;45.462;10.974;2024-03-08T06:33:19;100628.00;;;8.54;100.00
21640;BME280;10981;45.462;10.974;2024-03-08T06:35:48;100630.28;;;8.58;100.00
21640;BME280;10981;45.462;10.974;2024-03-08T06:38:16;100632.78;;;8.60;100.00
21640;BME280;10981;45.462;10.974;2024-03-08T06:40:45;100631.72;;;8.62;100.00
21640;BME280;10981;45.462;10.974;2024-03-08T06:43:16;100634.22;;;8.64;100.00
21640;BME280;10981;45.462;10.974;2024-03-08T06:45:44;100624.38;;;8.67;100.00
21640;BME280;10981;45.462;10.974;2024-03-08T06:48:17;100624.28;;;8.69;100.00
21640;BME280;10981;45.462;10.974;2024-03-08T06:50:46;100629.41;;;8.71;100.00
21640;BME280;10981;45.462;10.974;2024-03-08T06:53:15;100632.59;;;8.74;100.00
21640;BME280;10981;45.462;10.974;2024-03-08T06:55:50;100631.19;;;8.81;100.00
21640;BME280;10981;45.462;10.974;2024-03-08T06:58:18;100639.31;;;8.90;100.00
21640;BME280;10981;45.462;10.974;2024-03-08T07:00:47;100638.00;;;8.95;100.00
21640;BME280;10981;45.462;10.974;2024-03-08T07:03:20;100645.38;;;9.02;100.00
21640;BME280;10981;45.462;10.974;2024-03-08T07:05:50;100640.03;;;9.03;100.00
21640;BME280;10981;45.462;10.974;2024-03-08T07:08:18;100644.31;;;9.04;100.00
21640;BME280;10981;45.462;10.974;2024-03-08T07:10:46;100640.41;;;9.10;100.00
21640;BME280;10981;45.462;10.974;2024-03-08T07:13:15;100646.59;;;9.09;100.00
21640;BME280;10981;45.462;10.974;2024-03-08T07:15:45;100641.47;;;9.07;100.00
21640;BME280;10981;45.462;10.974;2024-03-08T07:18:18;100644.69;;;9.11;100.00
21640;BME280;10981;45.462;10.974;2024-03-08T07:20:47;100647.78;;;9.16;100.00
21640;BME280;10981;45.462;10.974;2024-03-08T07:23:15;100654.50;;;9.07;100.00
21640;BME280;10981;45.462;10.974;2024-03-08T07:26:06;100655.34;;;9.08;100.00
21640;BME280;10981;45.462;10.974;2024-03-08T07:28:34;100663.19;;;9.08;100.00
21640;BME280;10981;45.462;10.974;2024-03-08T07:31:03;100654.63;;;9.06;100.00
21640;BME280;10981;45.462;10.974;2024-03-08T07:33:45;100661.63;;;9.05;100.00
21640;BME280;10981;45.462;10.974;2024-03-08T07:36:13;100657.84;;;9.09;100.00
21640;BME280;10981;45.462;10.974;2024-03-08T07:38:43;100662.69;;;9.03;100.00
21640;BME280;10981;45.462;10.974;2024-03-08T07:41:11;100663.66;;;9.02;100.00
21640;BME280;10981;45.462;10.974;2024-03-08T07:43:42;100666.38;;;9.00;100.00
21640;BME280;10981;45.462;10.974;2024-03-08T07:46:10;100661.38;;;8.97;100.00
21640;BME280;10981;45.462;10.974;2024-03-08T07:48:39;100661.47;;;8.95;100.00
21640;BME280;10981;45.462;10.974;2024-03-08T07:51:08;100664.22;;;8.94;100.00
21640;BME280;10981;45.462;10.974;2024-03-08T07:53:38;100668.69;;;8.92;100.00
21640;BME280;10981;45.462;10.974;2024-03-08T07:56:06;100670.81;;;8.87;100.00
21640;BME280;10981;45.462;10.974;2024-03-08T07:58:36;100673.44;;;8.87;100.00
21640;BME280;10981;45.462;10.974;2024-03-08T08:01:04;100671.75;;;8.86;100.00
21640;BME280;10981;45.462;10.974;2024-03-08T08:03:32;100678.75;;;8.85;100.00
21640;BME280;10981;45.462;10.974;2024-03-08T08:06:01;100677.22;;;8.82;100.00
21640;BME280;10981;45.462;10.974;2024-03-08T08:08:29;100683.50;;;8.80;100.00
21640;BME280;10981;45.462;10.974;2024-03-08T08:10:59;100674.81;;;8.79;100.00
21640;BME280;10981;45.462;10.974;2024-03-08T08:13:27;100682.56;;;8.81;100.00
21640;BME280;10981;45.462;10.974;2024-03-08T08:16:00;100681.50;;;8.83;100.00
21640;BME280;10981;45.462;10.974;2024-03-08T08:18:28;100678.88;;;8.83;100.00
21640;BME280;10981;45.462;10.974;2024-03-08T08:20:58;100677.94;;;8.85;100.00
21640;BME280;10981;45.462;10.974;2024-03-08T08:23:28;100676.78;;;8.89;100.00
21640;BME280;10981;45.462;10.974;2024-03-08T08:25:57;100669.44;;;8.94;100.00
21640;BME280;10981;45.462;10.974;2024-03-08T08:28:26;100669.59;;;9.04;100.00
21640;BME280;10981;45.462;10.974;2024-03-08T08:30:56;100666.63;;;9.08;100.00
21640;BME280;10981;45.462;10.974;2024-03-08T08:33:25;100658.59;;;9.23;100.00
21640;BME280;10981;45.462;10.974;2024-03-08T08:35:55;100663.47;;;9.27;100.00
21640;BME280;10981;45.462;10.974;2024-03-08T08:38:24;100659.19;;;9.38;100.00
21640;BME280;10981;45.462;10.974;2024-03-08T08:40:52;100653.63;;;9.42;100.00
21640;BME280;10981;45.462;10.974;2024-03-08T08:43:21;100654.72;;;9.51;100.00
21640;BME280;10981;45.462;10.974;2024-03-08T08:45:52;100657.94;;;9.66;100.00
21640;BME280;10981;45.462;10.974;2024-03-08T08:48:23;100653.75;;;9.86;100.00
21640;BME280;10981;45.462;10.974;2024-03-08T08:50:53;100659.81;;;9.98;100.00
21640;BME280;10981;45.462;10.974;2024-03-08T08:53:21;100659.91;;;10.19;100.00
21640;BME280;10981;45.462;10.974;2024-03-08T08:55:50;100660.94;;;10.28;100.00
21640;BME280;10981;45.462;10.974;2024-03-08T08:58:18;100662.16;;;10.24;100.00
21640;BME280;10981;45.462;10.974;2024-03-08T09:00:46;100658.72;;;10.23;100.00
21640;BME280;10981;45.462;10.974;2024-03-08T09:03:15;100655.28;;;10.11;100.00
21640;BME280;10981;45.462;10.974;2024-03-08T09:05:45;100649.84;;;10.03;100.00
21640;BME280;10981;45.462;10.974;2024-03-08T09:08:16;100642.81;;;10.04;100.00
21640;BME280;10981;45.462;10.974;2024-03-08T09:10:44;100646.00;;;10.19;100.00
21640;BME280;10981;45.462;10.974;2024-03-08T09:13:14;100649.34;;;10.65;100.00
21640;BME280;10981;45.462;10.974;2024-03-08T09:15:57;100643.09;;;10.98;100.00
21640;BME280;10981;45.462;10.974;2024-03-08T09:18:26;100644.66;;;11.22;100.00
21640;BME280;10981;45.462;10.974;2024-03-08T09:20:54;100648.50;;;11.18;100.00
21640;BME280;10981;45.462;10.974;2024-03-08T09:23:22;100642.97;;;11.42;100.00
21640;BME280;10981;45.462;10.974;2024-03-08T09:25:50;100650.59;;;11.86;100.00
21640;BME280;10981;45.462;10.974;2024-03-08T09:28:19;100655.94;;;12.05;100.00
21640;BME280;10981;45.462;10.974;2024-03-08T09:30:48;100656.50;;;11.78;100.00
21640;BME280;10981;45.462;10.974;2024-03-08T09:33:29;100653.75;;;11.49;100.00
21640;BME280;10981;45.462;10.974;2024-03-08T09:36:00;100659.44;;;11.33;100.00
21640;BME280;10981;45.462;10.974;2024-03-08T09:38:31;100659.03;;;11.06;100.00
21640;BME280;10981;45.462;10.974;2024-03-08T09:40:59;100651.09;;;10.96;100.00
21640;BME280;10981;45.462;10.974;2024-03-08T09:43:29;100666.09;;;10.94;100.00
21640;BME280;10981;45.462;10.974;2024-03-08T09:45:59;100658.63;;;10.90;100.00
21640;BME280;10981;45.462;10.974;2024-03-08T09:48:28;100661.69;;;10.95;100.00
21640;BME280;10981;45.462;10.974;2024-03-08T09:50:57;100665.63;;;10.89;100.00
21640;BME280;10981;45.462;10.974;2024-03-08T09:53:29;100665.81;;;10.76;100.00
21640;BME280;10981;45.462;10.974;2024-03-08T09:55:57;100677.06;;;10.56;100.00
21640;BME280;10981;45.462;10.974;2024-03-08T09:58:27;100677.59;;;10.38;100.00
21640;BME280;10981;45.462;10.974;2024-03-08T10:01:02;100675.69;;;10.40;100.00
21640;BME280;10981;45.462;10.974;2024-03-08T10:03:30;100674.81;;;10.51;100.00
21640;BME280;10981;45.462;10.974;2024-03-08T10:06:02;100675.69;;;10.40;100.00
21640;BME280;10981;45.462;10.974;2024-03-08T10:08:31;100680.31;;;10.48;100.00
21640;BME280;10981;45.462;10.974;2024-03-08T10:10:59;100669.31;;;10.66;100.00
21640;BME280;10981;45.462;10.974;2024-03-08T10:13:29;100670.16;;;10.66;100.00
21640;BME280;10981;45.462;10.974;2024-03-08T10:15:58;100681.09;;;10.60;100.00
21640;BME280;10981;45.462;10.974;2024-03-08T10:18:27;100680.66;;;10.43;100.00
21640;BME280;10981;45.462;10.974;2024-03-08T10:21:06;100673.88;;;10.52;100.00
21640;BME280;10981;45.462;10.974;2024-03-08T10:23:36;100681.25;;;10.47;100.00
21640;BME280;10981;45.462;10.974;2024-03-08T10:26:12;100678.91;;;10.44;100.00
21640;BME280;10981;45.462;10.974;2024-03-08T10:28:50;100672.34;;;10.27;100.00
21640;BME280;10981;45.462;10.974;2024-03-08T10:31:20;100677.25;;;10.09;100.00
21640;BME280;10981;45.462;10.974;2024-03-08T10:33:48;100689.88;;;10.04;100.00
21640;BME280;10981;45.462;10.974;2024-03-08T10:36:19;100682.88;;;10.04;100.00
21640;BME280;10981;45.462;10.974;2024-03-08T10:38:51;100676.44;;;10.08;100.00
21640;BME280;10981;45.462;10.974;2024-03-08T10:41:24;100677.03;;;10.12;100.00
21640;BME280;10981;45.462;10.974;2024-03-08T10:44:21;100679.88;;;10.20;100.00
21640;BME280;10981;45.462;10.974;2024-03-08T10:50:17;100687.81;;;10.41;100.00
21640;BME280;10981;45.462;10.974;2024-03-08T10:52:50;100685.34;;;10.40;100.00
21640;BME280;10981;45.462;10.974;2024-03-08T10:55:20;100690.03;;;10.35;100.00
21640;BME280;10981;45.462;10.974;2024-03-08T10:57:51;100693.53;;;10.46;100.00
21640;BME280;10981;45.462;10.974;2024-03-08T11:00:19;100685.72;;;10.68;100.00
21640;BME280;10981;45.462;10.974;2024-03-08T11:02:55;100690.84;;;10.90;100.00
21640;BME280;10981;45.462;10.974;2024-03-08T11:05:35;100686.28;;;11.04;100.00
21640;BME280;10981;45.462;10.974;2024-03-08T11:08:18;100686.47;;;11.12;100.00
21640;BME280;10981;45.462;10.974;2024-03-08T11:10:50;100691.91;;;10.99;100.00
21640;BME280;10981;45.462;10.974;2024-03-08T11:13:41;100680.81;;;11.28;100.00
21640;BME280;10981;45.462;10.974;2024-03-08T11:16:11;100680.09;;;11.47;100.00
21640;BME280;10981;45.462;10.974;2024-03-08T11:18:40;100673.41;;;11.64;100.00
21640;BME280;10981;45.462;10.974;2024-03-08T11:21:09;100674.69;;;11.70;100.00
21640;BME280;10981;45.462;10.974;2024-03-08T11:23:41;100674.84;;;11.78;100.00
21640;BME280;10981;45.462;10.974;2024-03-08T11:26:24;100656.25;;;11.91;100.00
21640;BME280;10981;45.462;10.974;2024-03-08T11:28:52;100680.66;;;11.82;100.00
21640;BME280;10981;45.462;10.974;2024-03-08T11:31:25;100669.59;;;11.78;100.00
21640;BME280;10981;45.462;10.974;2024-03-08T11:33:56;100660.81;;;11.58;100.00
21640;BME280;10981;45.462;10.974;2024-03-08T11:36:25;100661.59;;;11.49;100.00
21640;BME280;10981;45.462;10.974;2024-03-08T11:38:54;100662.63;;;11.57;100.00
21640;BME280;10981;45.462;10.974;2024-03-08T11:41:25;100659.88;;;11.59;100.00
21640;BME280;10981;45.462;10.974;2024-03-08T11:44:04;100657.44;;;11.67;100.00
21640;BME280;10981;45.462;10.974;2024-03-08T11:46:33;100653.63;;;11.81;100.00
21640;BME280;10981;45.462;10.974;2024-03-08T11:49:02;100658.69;;;11.73;100.00
21640;BME280;10981;45.462;10.974;2024-03-08T11:51:34;100628.75;;;11.75;100.00
21640;BME280;10981;45.462;10.974;2024-03-08T11:54:02;100642.00;;;12.15;100.00
21640;BME280;10981;45.462;10.974;2024-03-08T11:56:31;100640.41;;;12.33;100.00
21640;BME280;10981;45.462;10.974;2024-03-08T11:59:00;100631.84;;;12.70;100.00
21640;BME280;10981;45.462;10.974;2024-03-08T12:01:30;100619.28;;;12.74;100.00
21640;BME280;10981;45.462;10.974;2024-03-08T12:04:00;100619.50;;;12.90;100.00
21640;BME280;10981;45.462;10.974;2024-03-08T12:06:37;100625.00;;;13.07;100.00
21640;BME280;10981;45.462;10.974;2024-03-08T12:09:10;100617.91;;;13.27;100.00
21640;BME280;10981;45.462;10.974;2024-03-08T12:11:39;100625.22;;;13.43;100.00
21640;BME280;10981;45.462;10.974;2024-03-08T12:14:08;100612.56;;;13.09;100.00
21640;BME280;10981;45.462;10.974;2024-03-08T12:16:39;100613.13;;;13.03;100.00
21640;BME280;10981;45.462;10.974;2024-03-08T12:19:07;100619.66;;;12.59;100.00
21640;BME280;10981;45.462;10.974;2024-03-08T12:21:37;100617.03;;;12.20;100.00
21640;BME280;10981;45.462;10.974;2024-03-08T12:24:07;100606.81;;;12.37;100.00
21640;BME280;10981;45.462;10.974;2024-03-08T12:26:39;100609.88;;;12.52;100.00
21640;BME280;10981;45.462;10.974;2024-03-08T12:29:17;100597.28;;;12.46;100.00
21640;BME280;10981;45.462;10.974;2024-03-08T12:31:50;100596.31;;;12.76;100.00
21640;BME280;10981;45.462;10.974;2024-03-08T12:34:20;100595.38;;;12.38;100.00
21640;BME280;10981;45.462;10.974;2024-03-08T12:36:49;100602.28;;;12.49;100.00
21640;BME280;10981;45.462;10.974;2024-03-08T12:39:20;100591.47;;;12.71;100.00
21640;BME280;10981;45.462;10.974;2024-03-08T12:41:51;100591.91;;;12.77;100.00
21640;BME280;10981;45.462;10.974;2024-03-08T12:44:20;100598.06;;;13.05;100.00
21640;BME280;10981;45.462;10.974;2024-03-08T12:46:51;100583.72;;;12.89;100.00
21640;BME280;10981;45.462;10.974;2024-03-08T12:49:22;100582.81;;;12.51;100.00
21640;BME280;10981;45.462;10.974;2024-03-08T12:51:51;100581.44;;;12.37;100.00
21640;BME280;10981;45.462;10.974;2024-03-08T12:54:21;100584.59;;;12.51;100.00